<?xml version="1.0" encoding="UTF-8" standalone="no" ?>
<gpx xmlns="http://www.topografix.com/GPX/1/1" xmlns:xsi="http://www.w3.org/2001/XMLSchema-instance" xsi:schemaLocation="http://www.topografix.com/GPX/1/1 http://www.topografix.com/GPX/1/1/gpx.xsd" version="1.1" creator="VisuGPX - https://www.visugpx.com">
  <metadata>
    <name>Itinéraire VTT Viaur facile</name>
  </metadata>
  <trk>
    <name><![CDATA[Itinéraire VTT Viaur facile]]></name>
    <trkseg>
      <trkpt lat="44.10154" lon="2.31666">
        <ele>440.448509</ele>
        <time>2022-05-30T16:46:46.690Z</time>
      </trkpt>
      <trkpt lat="44.10157" lon="2.31664">
        <ele>440.448509</ele>
        <time>2022-05-30T16:46:47.246Z</time>
      </trkpt>
      <trkpt lat="44.10193" lon="2.31512">
        <ele>439.570389</ele>
        <time>2022-05-30T16:47:06.555Z</time>
      </trkpt>
      <trkpt lat="44.10273" lon="2.31229">
        <ele>432.975478</ele>
        <time>2022-05-30T16:47:39.537Z</time>
      </trkpt>
      <trkpt lat="44.10324" lon="2.31093">
        <ele>429.799771</ele>
        <time>2022-05-30T16:47:56.578Z</time>
      </trkpt>
      <trkpt lat="44.10372" lon="2.31008">
        <ele>429.667737</ele>
        <time>2022-05-30T16:48:10.136Z</time>
      </trkpt>
      <trkpt lat="44.10402" lon="2.31061">
        <ele>429.639272</ele>
        <time>2022-05-30T16:48:20.601Z</time>
      </trkpt>
      <trkpt lat="44.10447" lon="2.31115">
        <ele>429.630669</ele>
        <time>2022-05-30T16:48:35.840Z</time>
      </trkpt>
      <trkpt lat="44.10505" lon="2.31202">
        <ele>430.501088</ele>
        <time>2022-05-30T16:49:02.031Z</time>
      </trkpt>
      <trkpt lat="44.10588" lon="2.31272">
        <ele>431.37052</ele>
        <time>2022-05-30T16:49:23.230Z</time>
      </trkpt>
      <trkpt lat="44.10652" lon="2.31082">
        <ele>429.325251</ele>
        <time>2022-05-30T16:49:48.692Z</time>
      </trkpt>
      <trkpt lat="44.10666" lon="2.31045">
        <ele>429.001883</ele>
        <time>2022-05-30T16:49:53.495Z</time>
      </trkpt>
      <trkpt lat="44.10674" lon="2.3103">
        <ele>429.016678</ele>
        <time>2022-05-30T16:49:55.600Z</time>
      </trkpt>
      <trkpt lat="44.10707" lon="2.31027">
        <ele>429.052454</ele>
        <time>2022-05-30T16:50:00.979Z</time>
      </trkpt>
      <trkpt lat="44.10743" lon="2.31053">
        <ele>429.097243</ele>
        <time>2022-05-30T16:50:08.273Z</time>
      </trkpt>
      <trkpt lat="44.10793" lon="2.31077">
        <ele>429.155254</ele>
        <time>2022-05-30T16:50:19.827Z</time>
      </trkpt>
      <trkpt lat="44.11148" lon="2.31196">
        <ele>436.479822</ele>
        <time>2022-05-30T16:52:13.715Z</time>
      </trkpt>
      <trkpt lat="44.11175" lon="2.31196">
        <ele>437.049604</ele>
        <time>2022-05-30T16:52:20.831Z</time>
      </trkpt>
      <trkpt lat="44.11234" lon="2.3117">
        <ele>436.299032</ele>
        <time>2022-05-30T16:52:34.937Z</time>
      </trkpt>
      <trkpt lat="44.11266" lon="2.31189">
        <ele>435.841116</ele>
        <time>2022-05-30T16:52:41.141Z</time>
      </trkpt>
      <trkpt lat="44.11295" lon="2.31193">
        <ele>435.464044</ele>
        <time>2022-05-30T16:52:45.751Z</time>
      </trkpt>
      <trkpt lat="44.11321" lon="2.31167">
        <ele>435.043876</ele>
        <time>2022-05-30T16:52:50.528Z</time>
      </trkpt>
      <trkpt lat="44.11351" lon="2.31123">
        <ele>433.330165</ele>
        <time>2022-05-30T16:52:56.771Z</time>
      </trkpt>
      <trkpt lat="44.11491" lon="2.30863">
        <ele>413.30525</ele>
        <time>2022-05-30T16:53:48.482Z</time>
      </trkpt>
      <trkpt lat="44.11537" lon="2.30786">
        <ele>404.825505</ele>
        <time>2022-05-30T16:54:03.370Z</time>
      </trkpt>
      <trkpt lat="44.11549" lon="2.30776">
        <ele>403.223921</ele>
        <time>2022-05-30T16:54:06.039Z</time>
      </trkpt>
      <trkpt lat="44.11671" lon="2.30666">
        <ele>385.943388</ele>
        <time>2022-05-30T16:54:35.946Z</time>
      </trkpt>
      <trkpt lat="44.11693" lon="2.3064">
        <ele>382.419175</ele>
        <time>2022-05-30T16:54:42.397Z</time>
      </trkpt>
      <trkpt lat="44.11748" lon="2.30521">
        <ele>374.085754</ele>
        <time>2022-05-30T16:55:04.669Z</time>
      </trkpt>
      <trkpt lat="44.11788" lon="2.30478">
        <ele>370.646569</ele>
        <time>2022-05-30T16:55:15.688Z</time>
      </trkpt>
      <trkpt lat="44.11939" lon="2.30405">
        <ele>368.367782</ele>
        <time>2022-05-30T16:55:57.471Z</time>
      </trkpt>
      <trkpt lat="44.11982" lon="2.30337">
        <ele>369.297568</ele>
        <time>2022-05-30T16:56:38.080Z</time>
      </trkpt>
      <trkpt lat="44.12023" lon="2.30335">
        <ele>373.061077</ele>
        <time>2022-05-30T16:57:09.857Z</time>
      </trkpt>
      <trkpt lat="44.12052" lon="2.30307">
        <ele>377.147836</ele>
        <time>2022-05-30T16:57:42.234Z</time>
      </trkpt>
      <trkpt lat="44.12089" lon="2.30211">
        <ele>386.287652</ele>
        <time>2022-05-30T16:59:00.664Z</time>
      </trkpt>
      <trkpt lat="44.12083" lon="2.30073">
        <ele>396.719474</ele>
        <time>2022-05-30T17:00:32.585Z</time>
      </trkpt>
      <trkpt lat="44.12072" lon="2.30004">
        <ele>401.727662</ele>
        <time>2022-05-30T17:01:13.717Z</time>
      </trkpt>
      <trkpt lat="44.12083" lon="2.29918">
        <ele>407.867166</ele>
        <time>2022-05-30T17:01:58.068Z</time>
      </trkpt>
      <trkpt lat="44.12076" lon="2.29911">
        <ele>408.495544</ele>
        <time>2022-05-30T17:02:03.967Z</time>
      </trkpt>
      <trkpt lat="44.12069" lon="2.29917">
        <ele>408.986769</ele>
        <time>2022-05-30T17:02:10.050Z</time>
      </trkpt>
      <trkpt lat="44.12051" lon="2.29957">
        <ele>410.876525</ele>
        <time>2022-05-30T17:02:32.668Z</time>
      </trkpt>
      <trkpt lat="44.12031" lon="2.29968">
        <ele>412.113879</ele>
        <time>2022-05-30T17:02:43.771Z</time>
      </trkpt>
      <trkpt lat="44.12021" lon="2.29949">
        <ele>413.069446</ele>
        <time>2022-05-30T17:02:56.824Z</time>
      </trkpt>
      <trkpt lat="44.12018" lon="2.29915">
        <ele>414.451622</ele>
        <time>2022-05-30T17:03:08.564Z</time>
      </trkpt>
      <trkpt lat="44.12005" lon="2.29881">
        <ele>416.032995</ele>
        <time>2022-05-30T17:03:24.120Z</time>
      </trkpt>
      <trkpt lat="44.11997" lon="2.29827">
        <ele>418.266029</ele>
        <time>2022-05-30T17:03:44.583Z</time>
      </trkpt>
      <trkpt lat="44.11999" lon="2.298">
        <ele>419.345067</ele>
        <time>2022-05-30T17:03:57.700Z</time>
      </trkpt>
      <trkpt lat="44.12003" lon="2.29763">
        <ele>420.857754</ele>
        <time>2022-05-30T17:04:11.661Z</time>
      </trkpt>
      <trkpt lat="44.1204" lon="2.29709">
        <ele>423.863564</ele>
        <time>2022-05-30T17:04:43.456Z</time>
      </trkpt>
      <trkpt lat="44.12071" lon="2.29678">
        <ele>425.988737</ele>
        <time>2022-05-30T17:05:07.330Z</time>
      </trkpt>
      <trkpt lat="44.12089" lon="2.29639">
        <ele>427.852232</ele>
        <time>2022-05-30T17:05:29.976Z</time>
      </trkpt>
      <trkpt lat="44.12091" lon="2.29604">
        <ele>429.380154</ele>
        <time>2022-05-30T17:05:43.815Z</time>
      </trkpt>
      <trkpt lat="44.12081" lon="2.29566">
        <ele>431.244847</ele>
        <time>2022-05-30T17:06:01.484Z</time>
      </trkpt>
      <trkpt lat="44.12083" lon="2.29538">
        <ele>432.549808</ele>
        <time>2022-05-30T17:06:13.982Z</time>
      </trkpt>
      <trkpt lat="44.12078" lon="2.2952">
        <ele>433.410627</ele>
        <time>2022-05-30T17:06:22.776Z</time>
      </trkpt>
      <trkpt lat="44.12045" lon="2.29458">
        <ele>436.985776</ele>
        <time>2022-05-30T17:06:59.783Z</time>
      </trkpt>
      <trkpt lat="44.12035" lon="2.29389">
        <ele>440.103532</ele>
        <time>2022-05-30T17:07:33.008Z</time>
      </trkpt>
      <trkpt lat="44.1201" lon="2.29345">
        <ele>441.614394</ele>
        <time>2022-05-30T17:07:58.807Z</time>
      </trkpt>
      <trkpt lat="44.11996" lon="2.29293">
        <ele>443.096122</ele>
        <time>2022-05-30T17:08:22.663Z</time>
      </trkpt>
      <trkpt lat="44.11924" lon="2.29239">
        <ele>446.128751</ele>
        <time>2022-05-30T17:09:03.774Z</time>
      </trkpt>
      <trkpt lat="44.11917" lon="2.29204">
        <ele>445.68403</ele>
        <time>2022-05-30T17:09:11.283Z</time>
      </trkpt>
      <trkpt lat="44.11919" lon="2.2917">
        <ele>443.890322</ele>
        <time>2022-05-30T17:09:17.411Z</time>
      </trkpt>
      <trkpt lat="44.11913" lon="2.29143">
        <ele>442.348528</ele>
        <time>2022-05-30T17:09:22.304Z</time>
      </trkpt>
      <trkpt lat="44.1193" lon="2.29091">
        <ele>439.278024</ele>
        <time>2022-05-30T17:09:31.267Z</time>
      </trkpt>
      <trkpt lat="44.12013" lon="2.28909">
        <ele>425.952397</ele>
        <time>2022-05-30T17:10:03.975Z</time>
      </trkpt>
      <trkpt lat="44.12021" lon="2.28912">
        <ele>425.075</ele>
        <time>2022-05-30T17:10:05.801Z</time>
      </trkpt>
      <trkpt lat="44.12018" lon="2.29011">
        <ele>418.015946</ele>
        <time>2022-05-30T17:10:21.081Z</time>
      </trkpt>
      <trkpt lat="44.12023" lon="2.29019">
        <ele>417.331484</ele>
        <time>2022-05-30T17:10:22.691Z</time>
      </trkpt>
      <trkpt lat="44.12057" lon="2.28898">
        <ele>411.254891</ele>
        <time>2022-05-30T17:10:45.099Z</time>
      </trkpt>
      <trkpt lat="44.12088" lon="2.28784">
        <ele>406.324945</ele>
        <time>2022-05-30T17:11:06.033Z</time>
      </trkpt>
      <trkpt lat="44.12057" lon="2.2875">
        <ele>403.546696</ele>
        <time>2022-05-30T17:11:15.389Z</time>
      </trkpt>
      <trkpt lat="44.11999" lon="2.28689">
        <ele>397.648312</ele>
        <time>2022-05-30T17:11:32.346Z</time>
      </trkpt>
      <trkpt lat="44.11979" lon="2.28678">
        <ele>395.95146</ele>
        <time>2022-05-30T17:11:37.183Z</time>
      </trkpt>
      <trkpt lat="44.11985" lon="2.28663">
        <ele>394.964281</ele>
        <time>2022-05-30T17:11:39.832Z</time>
      </trkpt>
      <trkpt lat="44.12033" lon="2.28672">
        <ele>391.10266</ele>
        <time>2022-05-30T17:11:50.056Z</time>
      </trkpt>
      <trkpt lat="44.12071" lon="2.2867">
        <ele>385.705312</ele>
        <time>2022-05-30T17:11:57.922Z</time>
      </trkpt>
      <trkpt lat="44.12112" lon="2.2865">
        <ele>379.184173</ele>
        <time>2022-05-30T17:12:06.856Z</time>
      </trkpt>
      <trkpt lat="44.12186" lon="2.28653">
        <ele>368.234842</ele>
        <time>2022-05-30T17:12:21.655Z</time>
      </trkpt>
      <trkpt lat="44.12278" lon="2.2861">
        <ele>355.935187</ele>
        <time>2022-05-30T17:12:40.897Z</time>
      </trkpt>
      <trkpt lat="44.12322" lon="2.28579">
        <ele>350.04237</ele>
        <time>2022-05-30T17:12:51.011Z</time>
      </trkpt>
      <trkpt lat="44.12409" lon="2.28532">
        <ele>345.080242</ele>
        <time>2022-05-30T17:13:12.631Z</time>
      </trkpt>
      <trkpt lat="44.12434" lon="2.2852">
        <ele>347.08795</ele>
        <time>2022-05-30T17:13:23.788Z</time>
      </trkpt>
      <trkpt lat="44.12461" lon="2.28497">
        <ele>349.473987</ele>
        <time>2022-05-30T17:13:43.263Z</time>
      </trkpt>
      <trkpt lat="44.12491" lon="2.28472">
        <ele>352.073251</ele>
        <time>2022-05-30T17:14:11.923Z</time>
      </trkpt>
      <trkpt lat="44.12472" lon="2.28455">
        <ele>353.777751</ele>
        <time>2022-05-30T17:14:36.320Z</time>
      </trkpt>
      <trkpt lat="44.12436" lon="2.28455">
        <ele>356.882594</ele>
        <time>2022-05-30T17:15:19.227Z</time>
      </trkpt>
      <trkpt lat="44.12312" lon="2.28476">
        <ele>383.080084</ele>
        <time>2022-05-30T17:18:20.918Z</time>
      </trkpt>
      <trkpt lat="44.12258" lon="2.28487">
        <ele>394.606754</ele>
        <time>2022-05-30T17:19:37.250Z</time>
      </trkpt>
      <trkpt lat="44.1222" lon="2.28518">
        <ele>402.541686</ele>
        <time>2022-05-30T17:20:33.744Z</time>
      </trkpt>
      <trkpt lat="44.12116" lon="2.28529">
        <ele>421.167559</ele>
        <time>2022-05-30T17:22:37.848Z</time>
      </trkpt>
      <trkpt lat="44.11976" lon="2.2847">
        <ele>443.725616</ele>
        <time>2022-05-30T17:25:21.538Z</time>
      </trkpt>
      <trkpt lat="44.11951" lon="2.28451">
        <ele>447.954652</ele>
        <time>2022-05-30T17:25:51.243Z</time>
      </trkpt>
      <trkpt lat="44.11954" lon="2.28438">
        <ele>449.403859</ele>
        <time>2022-05-30T17:26:04.184Z</time>
      </trkpt>
      <trkpt lat="44.11999" lon="2.28399">
        <ele>454.37146</ele>
        <time>2022-05-30T17:26:47.817Z</time>
      </trkpt>
      <trkpt lat="44.12009" lon="2.28378">
        <ele>455.25313</ele>
        <time>2022-05-30T17:27:07.949Z</time>
      </trkpt>
      <trkpt lat="44.12026" lon="2.2831">
        <ele>457.671492</ele>
        <time>2022-05-30T17:27:34.540Z</time>
      </trkpt>
      <trkpt lat="44.12026" lon="2.28283">
        <ele>458.600552</ele>
        <time>2022-05-30T17:27:47.988Z</time>
      </trkpt>
      <trkpt lat="44.11974" lon="2.2821">
        <ele>460.726257</ele>
        <time>2022-05-30T17:28:11.830Z</time>
      </trkpt>
      <trkpt lat="44.11974" lon="2.2821">
        <ele>460.726257</ele>
        <time>2022-05-30T17:28:11.852Z</time>
      </trkpt>
      <trkpt lat="44.11955" lon="2.28159">
        <ele>457.778887</ele>
        <time>2022-05-30T17:28:21.193Z</time>
      </trkpt>
      <trkpt lat="44.11944" lon="2.28104">
        <ele>454.858021</ele>
        <time>2022-05-30T17:28:30.187Z</time>
      </trkpt>
      <trkpt lat="44.11951" lon="2.28041">
        <ele>451.606427</ele>
        <time>2022-05-30T17:28:40.015Z</time>
      </trkpt>
      <trkpt lat="44.11982" lon="2.27983">
        <ele>447.683448</ele>
        <time>2022-05-30T17:28:51.642Z</time>
      </trkpt>
      <trkpt lat="44.12001" lon="2.27948">
        <ele>444.749037</ele>
        <time>2022-05-30T17:28:58.737Z</time>
      </trkpt>
      <trkpt lat="44.11993" lon="2.27917">
        <ele>442.604464</ele>
        <time>2022-05-30T17:29:03.832Z</time>
      </trkpt>
      <trkpt lat="44.11981" lon="2.27909">
        <ele>441.442252</ele>
        <time>2022-05-30T17:29:06.637Z</time>
      </trkpt>
      <trkpt lat="44.11958" lon="2.27911">
        <ele>439.3227</ele>
        <time>2022-05-30T17:29:11.633Z</time>
      </trkpt>
      <trkpt lat="44.1193" lon="2.27922">
        <ele>436.625865</ele>
        <time>2022-05-30T17:29:18.276Z</time>
      </trkpt>
      <trkpt lat="44.11915" lon="2.27915">
        <ele>435.254434</ele>
        <time>2022-05-30T17:29:21.435Z</time>
      </trkpt>
      <trkpt lat="44.11909" lon="2.27898">
        <ele>433.945393</ele>
        <time>2022-05-30T17:29:24.551Z</time>
      </trkpt>
      <trkpt lat="44.11918" lon="2.27851">
        <ele>430.856185</ele>
        <time>2022-05-30T17:29:31.850Z</time>
      </trkpt>
      <trkpt lat="44.1192" lon="2.27797">
        <ele>427.539386</ele>
        <time>2022-05-30T17:29:40.184Z</time>
      </trkpt>
      <trkpt lat="44.11904" lon="2.27736">
        <ele>423.506341</ele>
        <time>2022-05-30T17:29:51.332Z</time>
      </trkpt>
      <trkpt lat="44.11904" lon="2.27679">
        <ele>419.999488</ele>
        <time>2022-05-30T17:30:00.582Z</time>
      </trkpt>
      <trkpt lat="44.11911" lon="2.27648">
        <ele>418.026808</ele>
        <time>2022-05-30T17:30:05.443Z</time>
      </trkpt>
      <trkpt lat="44.11922" lon="2.27646">
        <ele>417.083147</ele>
        <time>2022-05-30T17:30:07.883Z</time>
      </trkpt>
      <trkpt lat="44.11946" lon="2.27714">
        <ele>410.310412</ele>
        <time>2022-05-30T17:30:19.584Z</time>
      </trkpt>
      <trkpt lat="44.11959" lon="2.27739">
        <ele>407.554334</ele>
        <time>2022-05-30T17:30:24.136Z</time>
      </trkpt>
      <trkpt lat="44.11972" lon="2.27745">
        <ele>405.912882</ele>
        <time>2022-05-30T17:30:26.784Z</time>
      </trkpt>
      <trkpt lat="44.11979" lon="2.27739">
        <ele>404.857789</ele>
        <time>2022-05-30T17:30:28.435Z</time>
      </trkpt>
      <trkpt lat="44.11984" lon="2.27636">
        <ele>395.591978</ele>
        <time>2022-05-30T17:30:43.913Z</time>
      </trkpt>
      <trkpt lat="44.11972" lon="2.27535">
        <ele>387.297452</ele>
        <time>2022-05-30T17:30:58.927Z</time>
      </trkpt>
      <trkpt lat="44.11966" lon="2.2752">
        <ele>385.930524</ele>
        <time>2022-05-30T17:31:01.436Z</time>
      </trkpt>
      <trkpt lat="44.11922" lon="2.27506">
        <ele>380.988637</ele>
        <time>2022-05-30T17:31:10.585Z</time>
      </trkpt>
      <trkpt lat="44.1192" lon="2.2749">
        <ele>379.702743</ele>
        <time>2022-05-30T17:31:13.030Z</time>
      </trkpt>
      <trkpt lat="44.11962" lon="2.27328">
        <ele>374.927934</ele>
        <time>2022-05-30T17:31:43.216Z</time>
      </trkpt>
      <trkpt lat="44.11953" lon="2.2728">
        <ele>375.141854</ele>
        <time>2022-05-30T17:31:59.729Z</time>
      </trkpt>
      <trkpt lat="44.1194" lon="2.27284">
        <ele>375.219614</ele>
        <time>2022-05-30T17:32:07.044Z</time>
      </trkpt>
      <trkpt lat="44.11932" lon="2.27315">
        <ele>375.359934</ele>
        <time>2022-05-30T17:32:19.369Z</time>
      </trkpt>
      <trkpt lat="44.11923" lon="2.27318">
        <ele>375.415389</ele>
        <time>2022-05-30T17:32:25.506Z</time>
      </trkpt>
      <trkpt lat="44.11919" lon="2.27285">
        <ele>375.72786</ele>
        <time>2022-05-30T17:32:39.872Z</time>
      </trkpt>
      <trkpt lat="44.11917" lon="2.2708">
        <ele>386.369253</ele>
        <time>2022-05-30T17:34:24.009Z</time>
      </trkpt>
      <trkpt lat="44.11887" lon="2.26972">
        <ele>390.322776</ele>
        <time>2022-05-30T17:35:20.335Z</time>
      </trkpt>
      <trkpt lat="44.11839" lon="2.26917">
        <ele>392.405318</ele>
        <time>2022-05-30T17:35:52.382Z</time>
      </trkpt>
      <trkpt lat="44.11803" lon="2.26886">
        <ele>393.805669</ele>
        <time>2022-05-30T17:36:07.770Z</time>
      </trkpt>
      <trkpt lat="44.11782" lon="2.26844">
        <ele>393.751717</ele>
        <time>2022-05-30T17:36:18.744Z</time>
      </trkpt>
      <trkpt lat="44.11826" lon="2.26799">
        <ele>390.714439</ele>
        <time>2022-05-30T17:36:33.043Z</time>
      </trkpt>
      <trkpt lat="44.11838" lon="2.26774">
        <ele>389.536458</ele>
        <time>2022-05-30T17:36:38.199Z</time>
      </trkpt>
      <trkpt lat="44.11845" lon="2.26735">
        <ele>387.94417</ele>
        <time>2022-05-30T17:36:44.938Z</time>
      </trkpt>
      <trkpt lat="44.11833" lon="2.26651">
        <ele>384.450169</ele>
        <time>2022-05-30T17:36:58.436Z</time>
      </trkpt>
      <trkpt lat="44.11849" lon="2.26592">
        <ele>379.57477</ele>
        <time>2022-05-30T17:37:07.960Z</time>
      </trkpt>
      <trkpt lat="44.11851" lon="2.26539">
        <ele>375.475059</ele>
        <time>2022-05-30T17:37:15.938Z</time>
      </trkpt>
      <trkpt lat="44.1184" lon="2.26403">
        <ele>365.069567</ele>
        <time>2022-05-30T17:37:36.728Z</time>
      </trkpt>
      <trkpt lat="44.11849" lon="2.26357">
        <ele>362.908538</ele>
        <time>2022-05-30T17:37:44.262Z</time>
      </trkpt>
      <trkpt lat="44.11837" lon="2.26299">
        <ele>360.177451</ele>
        <time>2022-05-30T17:37:54.083Z</time>
      </trkpt>
      <trkpt lat="44.11791" lon="2.26201">
        <ele>354.929053</ele>
        <time>2022-05-30T17:38:14.527Z</time>
      </trkpt>
      <trkpt lat="44.11799" lon="2.26154">
        <ele>353.167698</ele>
        <time>2022-05-30T17:38:23.399Z</time>
      </trkpt>
      <trkpt lat="44.11783" lon="2.26086">
        <ele>351.002949</ele>
        <time>2022-05-30T17:38:36.521Z</time>
      </trkpt>
      <trkpt lat="44.11739" lon="2.2603">
        <ele>348.482444</ele>
        <time>2022-05-30T17:38:51.516Z</time>
      </trkpt>
      <trkpt lat="44.11741" lon="2.25989">
        <ele>347.249483</ele>
        <time>2022-05-30T17:38:58.587Z</time>
      </trkpt>
      <trkpt lat="44.11758" lon="2.25956">
        <ele>346.091799</ele>
        <time>2022-05-30T17:39:05.541Z</time>
      </trkpt>
      <trkpt lat="44.11799" lon="2.25906">
        <ele>344.248296</ele>
        <time>2022-05-30T17:39:18.552Z</time>
      </trkpt>
      <trkpt lat="44.11846" lon="2.25735">
        <ele>340.503611</ele>
        <time>2022-05-30T17:39:53.150Z</time>
      </trkpt>
      <trkpt lat="44.11883" lon="2.25646">
        <ele>341.179816</ele>
        <time>2022-05-30T17:40:19.134Z</time>
      </trkpt>
      <trkpt lat="44.11916" lon="2.2555">
        <ele>341.875969</ele>
        <time>2022-05-30T17:40:52.208Z</time>
      </trkpt>
      <trkpt lat="44.11927" lon="2.25435">
        <ele>342.098791</ele>
        <time>2022-05-30T17:41:29.700Z</time>
      </trkpt>
      <trkpt lat="44.11926" lon="2.25394">
        <ele>342.140867</ele>
        <time>2022-05-30T17:41:40.199Z</time>
      </trkpt>
      <trkpt lat="44.11922" lon="2.25352">
        <ele>342.18328</ele>
        <time>2022-05-30T17:41:49.430Z</time>
      </trkpt>
      <trkpt lat="44.11907" lon="2.25276">
        <ele>341.773553</ele>
        <time>2022-05-30T17:42:04.744Z</time>
      </trkpt>
      <trkpt lat="44.11922" lon="2.25173">
        <ele>336.3798</ele>
        <time>2022-05-30T17:42:23.289Z</time>
      </trkpt>
      <trkpt lat="44.11951" lon="2.25072">
        <ele>330.815865</ele>
        <time>2022-05-30T17:42:40.079Z</time>
      </trkpt>
      <trkpt lat="44.12009" lon="2.25027">
        <ele>325.266262</ele>
        <time>2022-05-30T17:42:54.132Z</time>
      </trkpt>
      <trkpt lat="44.1205" lon="2.25019">
        <ele>321.551689</ele>
        <time>2022-05-30T17:43:02.994Z</time>
      </trkpt>
      <trkpt lat="44.12106" lon="2.25022">
        <ele>316.589595</ele>
        <time>2022-05-30T17:43:12.462Z</time>
      </trkpt>
      <trkpt lat="44.12137" lon="2.25043">
        <ele>313.47561</ele>
        <time>2022-05-30T17:43:18.548Z</time>
      </trkpt>
      <trkpt lat="44.12155" lon="2.25043">
        <ele>312.967815</ele>
        <time>2022-05-30T17:43:21.650Z</time>
      </trkpt>
      <trkpt lat="44.12191" lon="2.25067">
        <ele>311.983293</ele>
        <time>2022-05-30T17:43:28.848Z</time>
      </trkpt>
      <trkpt lat="44.12266" lon="2.2514">
        <ele>309.709898</ele>
        <time>2022-05-30T17:43:49.406Z</time>
      </trkpt>
      <trkpt lat="44.12294" lon="2.25152">
        <ele>308.967305</ele>
        <time>2022-05-30T17:43:57.516Z</time>
      </trkpt>
      <trkpt lat="44.12297" lon="2.25198">
        <ele>309.004198</ele>
        <time>2022-05-30T17:44:06.890Z</time>
      </trkpt>
      <trkpt lat="44.12304" lon="2.25209">
        <ele>309.038994</ele>
        <time>2022-05-30T17:44:09.780Z</time>
      </trkpt>
      <trkpt lat="44.12325" lon="2.25216">
        <ele>309.110712</ele>
        <time>2022-05-30T17:44:16.227Z</time>
      </trkpt>
      <trkpt lat="44.12364" lon="2.2525">
        <ele>309.261444</ele>
        <time>2022-05-30T17:44:28.958Z</time>
      </trkpt>
      <trkpt lat="44.12384" lon="2.25271">
        <ele>309.342165</ele>
        <time>2022-05-30T17:44:35.652Z</time>
      </trkpt>
      <trkpt lat="44.12409" lon="2.25279">
        <ele>309.424826</ele>
        <time>2022-05-30T17:44:42.041Z</time>
      </trkpt>
      <trkpt lat="44.12413" lon="2.25287">
        <ele>309.446908</ele>
        <time>2022-05-30T17:44:43.785Z</time>
      </trkpt>
      <trkpt lat="44.12419" lon="2.25325">
        <ele>309.564097</ele>
        <time>2022-05-30T17:44:50.821Z</time>
      </trkpt>
      <trkpt lat="44.12464" lon="2.25424">
        <ele>309.990594</ele>
        <time>2022-05-30T17:45:15.025Z</time>
      </trkpt>
      <trkpt lat="44.12479" lon="2.25473">
        <ele>310.18518</ele>
        <time>2022-05-30T17:45:25.268Z</time>
      </trkpt>
      <trkpt lat="44.12481" lon="2.25493">
        <ele>310.259354</ele>
        <time>2022-05-30T17:45:28.421Z</time>
      </trkpt>
      <trkpt lat="44.12471" lon="2.25538">
        <ele>310.823807</ele>
        <time>2022-05-30T17:45:37.734Z</time>
      </trkpt>
      <trkpt lat="44.12473" lon="2.25543">
        <ele>311.140087</ele>
        <time>2022-05-30T17:45:38.578Z</time>
      </trkpt>
      <trkpt lat="44.12485" lon="2.25528">
        <ele>312.36016</ele>
        <time>2022-05-30T17:45:44.652Z</time>
      </trkpt>
      <trkpt lat="44.12488" lon="2.2553">
        <ele>312.666506</ele>
        <time>2022-05-30T17:45:46.152Z</time>
      </trkpt>
      <trkpt lat="44.12496" lon="2.2556">
        <ele>314.480592</ele>
        <time>2022-05-30T17:45:53.955Z</time>
      </trkpt>
      <trkpt lat="44.12493" lon="2.2559">
        <ele>316.172454</ele>
        <time>2022-05-30T17:46:05.418Z</time>
      </trkpt>
      <trkpt lat="44.12483" lon="2.25611">
        <ele>317.581795</ele>
        <time>2022-05-30T17:46:18.224Z</time>
      </trkpt>
      <trkpt lat="44.12485" lon="2.25624">
        <ele>318.354868</ele>
        <time>2022-05-30T17:46:26.412Z</time>
      </trkpt>
      <trkpt lat="44.12483" lon="2.25611">
        <ele>319.12794</ele>
        <time>2022-05-30T17:46:34.804Z</time>
      </trkpt>
      <trkpt lat="44.12493" lon="2.2559">
        <ele>320.537281</ele>
        <time>2022-05-30T17:46:51.664Z</time>
      </trkpt>
      <trkpt lat="44.12496" lon="2.2556">
        <ele>322.229143</ele>
        <time>2022-05-30T17:47:11.962Z</time>
      </trkpt>
      <trkpt lat="44.12488" lon="2.2553">
        <ele>324.04323</ele>
        <time>2022-05-30T17:47:35.973Z</time>
      </trkpt>
      <trkpt lat="44.12485" lon="2.25528">
        <ele>324.349575</ele>
        <time>2022-05-30T17:47:38.905Z</time>
      </trkpt>
      <trkpt lat="44.12483" lon="2.25521">
        <ele>325.040535</ele>
        <time>2022-05-30T17:47:44.020Z</time>
      </trkpt>
      <trkpt lat="44.12495" lon="2.25489">
        <ele>329.382493</ele>
        <time>2022-05-30T17:48:07.986Z</time>
      </trkpt>
      <trkpt lat="44.12531" lon="2.25429">
        <ele>338.547276</ele>
        <time>2022-05-30T17:49:06.954Z</time>
      </trkpt>
      <trkpt lat="44.12553" lon="2.25369">
        <ele>346.617265</ele>
        <time>2022-05-30T17:49:58.450Z</time>
      </trkpt>
      <trkpt lat="44.12597" lon="2.25312">
        <ele>355.499435</ele>
        <time>2022-05-30T17:51:07.195Z</time>
      </trkpt>
      <trkpt lat="44.1263" lon="2.25291">
        <ele>359.234831</ele>
        <time>2022-05-30T17:51:41.196Z</time>
      </trkpt>
      <trkpt lat="44.12653" lon="2.25266">
        <ele>362.149835</ele>
        <time>2022-05-30T17:52:00.083Z</time>
      </trkpt>
      <trkpt lat="44.12688" lon="2.25251">
        <ele>365.787788</ele>
        <time>2022-05-30T17:52:21.613Z</time>
      </trkpt>
      <trkpt lat="44.1279" lon="2.25259">
        <ele>374.465939</ele>
        <time>2022-05-30T17:53:10.256Z</time>
      </trkpt>
      <trkpt lat="44.1279" lon="2.25245">
        <ele>375.069687</ele>
        <time>2022-05-30T17:53:16.442Z</time>
      </trkpt>
      <trkpt lat="44.12742" lon="2.25242">
        <ele>377.838686</ele>
        <time>2022-05-30T17:53:38.432Z</time>
      </trkpt>
      <trkpt lat="44.12672" lon="2.25213">
        <ele>382.100633</ele>
        <time>2022-05-30T17:54:08.628Z</time>
      </trkpt>
      <trkpt lat="44.12641" lon="2.25217">
        <ele>384.7626</ele>
        <time>2022-05-30T17:54:26.578Z</time>
      </trkpt>
      <trkpt lat="44.12583" lon="2.25246">
        <ele>390.950105</ele>
        <time>2022-05-30T17:55:07.685Z</time>
      </trkpt>
      <trkpt lat="44.1257" lon="2.25248">
        <ele>392.258088</ele>
        <time>2022-05-30T17:55:17.910Z</time>
      </trkpt>
      <trkpt lat="44.12563" lon="2.25243">
        <ele>393.048549</ele>
        <time>2022-05-30T17:55:23.931Z</time>
      </trkpt>
      <trkpt lat="44.12562" lon="2.25231">
        <ele>393.92735</ele>
        <time>2022-05-30T17:55:30.988Z</time>
      </trkpt>
      <trkpt lat="44.12634" lon="2.25038">
        <ele>409.033603</ele>
        <time>2022-05-30T17:57:32.786Z</time>
      </trkpt>
      <trkpt lat="44.12638" lon="2.2502">
        <ele>410.256606</ele>
        <time>2022-05-30T17:57:42.560Z</time>
      </trkpt>
      <trkpt lat="44.12634" lon="2.24998">
        <ele>411.794933</ele>
        <time>2022-05-30T17:57:52.591Z</time>
      </trkpt>
      <trkpt lat="44.12628" lon="2.24987">
        <ele>412.718928</ele>
        <time>2022-05-30T17:57:59.204Z</time>
      </trkpt>
      <trkpt lat="44.12598" lon="2.24931">
        <ele>417.442662</ele>
        <time>2022-05-30T17:58:26.399Z</time>
      </trkpt>
      <trkpt lat="44.12581" lon="2.24936">
        <ele>417.93689</ele>
        <time>2022-05-30T17:58:34.031Z</time>
      </trkpt>
      <trkpt lat="44.12501" lon="2.24889">
        <ele>420.073213</ele>
        <time>2022-05-30T17:59:02.151Z</time>
      </trkpt>
      <trkpt lat="44.12488" lon="2.2488">
        <ele>420.431675</ele>
        <time>2022-05-30T17:59:05.529Z</time>
      </trkpt>
      <trkpt lat="44.12451" lon="2.2484">
        <ele>421.608355</ele>
        <time>2022-05-30T17:59:16.829Z</time>
      </trkpt>
      <trkpt lat="44.12409" lon="2.24777">
        <ele>422.131982</ele>
        <time>2022-05-30T17:59:32.230Z</time>
      </trkpt>
      <trkpt lat="44.12404" lon="2.24767">
        <ele>422.163155</ele>
        <time>2022-05-30T17:59:34.380Z</time>
      </trkpt>
      <trkpt lat="44.12369" lon="2.247">
        <ele>422.371588</ele>
        <time>2022-05-30T17:59:47.633Z</time>
      </trkpt>
      <trkpt lat="44.12337" lon="2.24632">
        <ele>422.573703</ele>
        <time>2022-05-30T17:59:59.622Z</time>
      </trkpt>
      <trkpt lat="44.12332" lon="2.24624">
        <ele>422.579387</ele>
        <time>2022-05-30T18:00:01.298Z</time>
      </trkpt>
      <trkpt lat="44.12323" lon="2.24624">
        <ele>422.401466</ele>
        <time>2022-05-30T18:00:02.959Z</time>
      </trkpt>
      <trkpt lat="44.12282" lon="2.24594">
        <ele>421.530741</ele>
        <time>2022-05-30T18:00:11.740Z</time>
      </trkpt>
      <trkpt lat="44.12196" lon="2.24568">
        <ele>419.857288</ele>
        <time>2022-05-30T18:00:26.594Z</time>
      </trkpt>
      <trkpt lat="44.12282" lon="2.24594">
        <ele>415.508658</ele>
        <time>2022-05-30T18:00:39.445Z</time>
      </trkpt>
      <trkpt lat="44.12238" lon="2.24654">
        <ele>411.294162</ele>
        <time>2022-05-30T18:00:48.413Z</time>
      </trkpt>
      <trkpt lat="44.12229" lon="2.24674">
        <ele>410.106679</ele>
        <time>2022-05-30T18:00:50.804Z</time>
      </trkpt>
      <trkpt lat="44.12065" lon="2.24742">
        <ele>390.402448</ele>
        <time>2022-05-30T18:01:11.745Z</time>
      </trkpt>
      <trkpt lat="44.12063" lon="2.24777">
        <ele>386.963684</ele>
        <time>2022-05-30T18:01:16.884Z</time>
      </trkpt>
      <trkpt lat="44.12047" lon="2.24861">
        <ele>379.009941</ele>
        <time>2022-05-30T18:01:29.692Z</time>
      </trkpt>
      <trkpt lat="44.12069" lon="2.24883">
        <ele>375.621721</ele>
        <time>2022-05-30T18:01:35.340Z</time>
      </trkpt>
      <trkpt lat="44.12107" lon="2.24899">
        <ele>370.709403</ele>
        <time>2022-05-30T18:01:43.307Z</time>
      </trkpt>
      <trkpt lat="44.12092" lon="2.24909">
        <ele>368.610233</ele>
        <time>2022-05-30T18:01:46.673Z</time>
      </trkpt>
      <trkpt lat="44.12077" lon="2.24906">
        <ele>366.798106</ele>
        <time>2022-05-30T18:01:50.113Z</time>
      </trkpt>
      <trkpt lat="44.12057" lon="2.24913">
        <ele>364.233051</ele>
        <time>2022-05-30T18:01:55.069Z</time>
      </trkpt>
      <trkpt lat="44.12039" lon="2.24927">
        <ele>361.687798</ele>
        <time>2022-05-30T18:01:59.912Z</time>
      </trkpt>
      <trkpt lat="44.12046" lon="2.24951">
        <ele>359.586556</ele>
        <time>2022-05-30T18:02:03.578Z</time>
      </trkpt>
      <trkpt lat="44.12075" lon="2.24966">
        <ele>356.341806</ele>
        <time>2022-05-30T18:02:10.022Z</time>
      </trkpt>
      <trkpt lat="44.12099" lon="2.24971">
        <ele>353.837196</ele>
        <time>2022-05-30T18:02:15.090Z</time>
      </trkpt>
      <trkpt lat="44.12043" lon="2.24983">
        <ele>347.963193</ele>
        <time>2022-05-30T18:02:26.840Z</time>
      </trkpt>
      <trkpt lat="44.12029" lon="2.24999">
        <ele>346.08977</ele>
        <time>2022-05-30T18:02:31.170Z</time>
      </trkpt>
      <trkpt lat="44.1205" lon="2.25019">
        <ele>343.521555</ele>
        <time>2022-05-30T18:02:36.214Z</time>
      </trkpt>
      <trkpt lat="44.12009" lon="2.25027">
        <ele>341.540855</ele>
        <time>2022-05-30T18:02:46.507Z</time>
      </trkpt>
      <trkpt lat="44.11951" lon="2.25072">
        <ele>340.810025</ele>
        <time>2022-05-30T18:03:02.418Z</time>
      </trkpt>
      <trkpt lat="44.11922" lon="2.25173">
        <ele>339.95134</ele>
        <time>2022-05-30T18:03:41.570Z</time>
      </trkpt>
      <trkpt lat="44.11907" lon="2.25276">
        <ele>341.060197</ele>
        <time>2022-05-30T18:04:22.322Z</time>
      </trkpt>
      <trkpt lat="44.11922" lon="2.25352">
        <ele>342.131722</ele>
        <time>2022-05-30T18:04:47.009Z</time>
      </trkpt>
      <trkpt lat="44.11926" lon="2.25394">
        <ele>342.695028</ele>
        <time>2022-05-30T18:04:56.980Z</time>
      </trkpt>
      <trkpt lat="44.11927" lon="2.25435">
        <ele>343.196536</ele>
        <time>2022-05-30T18:05:05.841Z</time>
      </trkpt>
      <trkpt lat="44.11916" lon="2.2555">
        <ele>341.747595</ele>
        <time>2022-05-30T18:05:28.018Z</time>
      </trkpt>
      <trkpt lat="44.11883" lon="2.25646">
        <ele>340.426324</ele>
        <time>2022-05-30T18:05:48.583Z</time>
      </trkpt>
      <trkpt lat="44.11846" lon="2.25735">
        <ele>341.099005</ele>
        <time>2022-05-30T18:06:10.797Z</time>
      </trkpt>
      <trkpt lat="44.11799" lon="2.25906">
        <ele>343.617618</ele>
        <time>2022-05-30T18:07:10.497Z</time>
      </trkpt>
      <trkpt lat="44.11758" lon="2.25956">
        <ele>346.024011</ele>
        <time>2022-05-30T18:07:42.504Z</time>
      </trkpt>
      <trkpt lat="44.11741" lon="2.25989">
        <ele>347.324139</ele>
        <time>2022-05-30T18:08:00.306Z</time>
      </trkpt>
      <trkpt lat="44.11739" lon="2.2603">
        <ele>348.616559</ele>
        <time>2022-05-30T18:08:16.872Z</time>
      </trkpt>
      <trkpt lat="44.11783" lon="2.26086">
        <ele>351.259745</ele>
        <time>2022-05-30T18:08:47.769Z</time>
      </trkpt>
      <trkpt lat="44.11799" lon="2.26154">
        <ele>353.613336</ele>
        <time>2022-05-30T18:09:13.141Z</time>
      </trkpt>
      <trkpt lat="44.11791" lon="2.26201">
        <ele>355.189486</ele>
        <time>2022-05-30T18:09:29.700Z</time>
      </trkpt>
      <trkpt lat="44.11837" lon="2.26299">
        <ele>359.004785</ele>
        <time>2022-05-30T18:10:15.142Z</time>
      </trkpt>
      <trkpt lat="44.11849" lon="2.26357">
        <ele>362.732245</ele>
        <time>2022-05-30T18:10:44.720Z</time>
      </trkpt>
      <trkpt lat="44.1184" lon="2.26403">
        <ele>366.077415</ele>
        <time>2022-05-30T18:11:10.890Z</time>
      </trkpt>
      <trkpt lat="44.11851" lon="2.26539">
        <ele>375.654231</ele>
        <time>2022-05-30T18:12:37.328Z</time>
      </trkpt>
      <trkpt lat="44.11849" lon="2.26592">
        <ele>379.108625</ele>
        <time>2022-05-30T18:13:12.435Z</time>
      </trkpt>
      <trkpt lat="44.11833" lon="2.26651">
        <ele>383.049976</ele>
        <time>2022-05-30T18:13:53.144Z</time>
      </trkpt>
      <trkpt lat="44.11845" lon="2.26735">
        <ele>388.410378</ele>
        <time>2022-05-30T18:14:40.685Z</time>
      </trkpt>
      <trkpt lat="44.11838" lon="2.26774">
        <ele>390.906369</ele>
        <time>2022-05-30T18:14:58.385Z</time>
      </trkpt>
      <trkpt lat="44.11826" lon="2.26799">
        <ele>392.560144</ele>
        <time>2022-05-30T18:15:10.243Z</time>
      </trkpt>
      <trkpt lat="44.11782" lon="2.26844">
        <ele>392.58353</ele>
        <time>2022-05-30T18:15:35.964Z</time>
      </trkpt>
      <trkpt lat="44.11803" lon="2.26886">
        <ele>392.599415</ele>
        <time>2022-05-30T18:15:49.512Z</time>
      </trkpt>
      <trkpt lat="44.11839" lon="2.26917">
        <ele>392.617291</ele>
        <time>2022-05-30T18:16:01.771Z</time>
      </trkpt>
      <trkpt lat="44.11887" lon="2.26972">
        <ele>391.371019</ele>
        <time>2022-05-30T18:16:17.385Z</time>
      </trkpt>
      <trkpt lat="44.11917" lon="2.2708">
        <ele>385.777211</ele>
        <time>2022-05-30T18:16:36.252Z</time>
      </trkpt>
      <trkpt lat="44.11919" lon="2.27285">
        <ele>377.383905</ele>
        <time>2022-05-30T18:17:09.175Z</time>
      </trkpt>
      <trkpt lat="44.11923" lon="2.27318">
        <ele>376.281412</ele>
        <time>2022-05-30T18:17:14.906Z</time>
      </trkpt>
      <trkpt lat="44.11932" lon="2.27315">
        <ele>375.857435</ele>
        <time>2022-05-30T18:17:17.022Z</time>
      </trkpt>
      <trkpt lat="44.1194" lon="2.27284">
        <ele>374.78461</ele>
        <time>2022-05-30T18:17:22.867Z</time>
      </trkpt>
      <trkpt lat="44.11953" lon="2.2728">
        <ele>374.190093</ele>
        <time>2022-05-30T18:17:26.035Z</time>
      </trkpt>
      <trkpt lat="44.11962" lon="2.27328">
        <ele>372.554559</ele>
        <time>2022-05-30T18:17:35.479Z</time>
      </trkpt>
      <trkpt lat="44.1192" lon="2.2749">
        <ele>380.581214</ele>
        <time>2022-05-30T18:18:43.214Z</time>
      </trkpt>
      <trkpt lat="44.11922" lon="2.27506">
        <ele>381.386718</ele>
        <time>2022-05-30T18:18:53.996Z</time>
      </trkpt>
      <trkpt lat="44.11966" lon="2.2752">
        <ele>384.482393</ele>
        <time>2022-05-30T18:19:38.876Z</time>
      </trkpt>
      <trkpt lat="44.11972" lon="2.27535">
        <ele>385.841799</ele>
        <time>2022-05-30T18:19:52.324Z</time>
      </trkpt>
      <trkpt lat="44.11984" lon="2.27636">
        <ele>395.604084</ele>
        <time>2022-05-30T18:21:08.966Z</time>
      </trkpt>
      <trkpt lat="44.11979" lon="2.27739">
        <ele>405.411595</ele>
        <time>2022-05-30T18:22:17.127Z</time>
      </trkpt>
      <trkpt lat="44.11972" lon="2.27745">
        <ele>406.528372</ele>
        <time>2022-05-30T18:22:28.477Z</time>
      </trkpt>
      <trkpt lat="44.11959" lon="2.27739">
        <ele>408.265787</ele>
        <time>2022-05-30T18:22:42.983Z</time>
      </trkpt>
      <trkpt lat="44.11946" lon="2.27714">
        <ele>410.498148</ele>
        <time>2022-05-30T18:23:04.258Z</time>
      </trkpt>
      <trkpt lat="44.11922" lon="2.27646">
        <ele>415.866705</ele>
        <time>2022-05-30T18:23:51.569Z</time>
      </trkpt>
      <trkpt lat="44.11911" lon="2.27648">
        <ele>416.935525</ele>
        <time>2022-05-30T18:23:59.432Z</time>
      </trkpt>
      <trkpt lat="44.11904" lon="2.27679">
        <ele>419.169844</ele>
        <time>2022-05-30T18:24:19.152Z</time>
      </trkpt>
      <trkpt lat="44.11904" lon="2.27736">
        <ele>423.141814</ele>
        <time>2022-05-30T18:24:46.885Z</time>
      </trkpt>
      <trkpt lat="44.1192" lon="2.27797">
        <ele>427.606405</ele>
        <time>2022-05-30T18:25:14.476Z</time>
      </trkpt>
      <trkpt lat="44.11918" lon="2.27851">
        <ele>431.120722</ele>
        <time>2022-05-30T18:25:45.216Z</time>
      </trkpt>
      <trkpt lat="44.11909" lon="2.27898">
        <ele>434.292184</ele>
        <time>2022-05-30T18:26:16.945Z</time>
      </trkpt>
      <trkpt lat="44.11915" lon="2.27915">
        <ele>435.598591</ele>
        <time>2022-05-30T18:26:28.067Z</time>
      </trkpt>
      <trkpt lat="44.1193" lon="2.27922">
        <ele>436.967263</ele>
        <time>2022-05-30T18:26:41.274Z</time>
      </trkpt>
      <trkpt lat="44.11958" lon="2.27911">
        <ele>439.658672</ele>
        <time>2022-05-30T18:27:02.075Z</time>
      </trkpt>
      <trkpt lat="44.11981" lon="2.27909">
        <ele>441.773959</ele>
        <time>2022-05-30T18:27:20.614Z</time>
      </trkpt>
      <trkpt lat="44.11993" lon="2.27917">
        <ele>442.904865</ele>
        <time>2022-05-30T18:27:30.179Z</time>
      </trkpt>
      <trkpt lat="44.12001" lon="2.27948">
        <ele>444.902978</ele>
        <time>2022-05-30T18:27:48.876Z</time>
      </trkpt>
      <trkpt lat="44.11982" lon="2.27983">
        <ele>447.636988</ele>
        <time>2022-05-30T18:28:12.618Z</time>
      </trkpt>
      <trkpt lat="44.11951" lon="2.28041">
        <ele>452.047999</ele>
        <time>2022-05-30T18:28:49.056Z</time>
      </trkpt>
      <trkpt lat="44.11944" lon="2.28104">
        <ele>455.927976</ele>
        <time>2022-05-30T18:29:25.900Z</time>
      </trkpt>
      <trkpt lat="44.11955" lon="2.28159">
        <ele>457.977807</ele>
        <time>2022-05-30T18:29:57.018Z</time>
      </trkpt>
      <trkpt lat="44.11974" lon="2.2821">
        <ele>458.36738</ele>
        <time>2022-05-30T18:30:25.336Z</time>
      </trkpt>
      <trkpt lat="44.11974" lon="2.2821">
        <ele>458.36738</ele>
        <time>2022-05-30T18:30:25.503Z</time>
      </trkpt>
      <trkpt lat="44.12026" lon="2.28283">
        <ele>459.061439</ele>
        <time>2022-05-30T18:30:48.648Z</time>
      </trkpt>
      <trkpt lat="44.12026" lon="2.2831">
        <ele>459.246881</ele>
        <time>2022-05-30T18:30:53.091Z</time>
      </trkpt>
      <trkpt lat="44.12009" lon="2.28378">
        <ele>456.494344</ele>
        <time>2022-05-30T18:31:05.863Z</time>
      </trkpt>
      <trkpt lat="44.11999" lon="2.28399">
        <ele>454.254553</ele>
        <time>2022-05-30T18:31:09.644Z</time>
      </trkpt>
      <trkpt lat="44.11954" lon="2.28438">
        <ele>447.946966</ele>
        <time>2022-05-30T18:31:20.903Z</time>
      </trkpt>
      <trkpt lat="44.11951" lon="2.28451">
        <ele>446.775713</ele>
        <time>2022-05-30T18:31:22.809Z</time>
      </trkpt>
      <trkpt lat="44.11976" lon="2.2847">
        <ele>443.357798</ele>
        <time>2022-05-30T18:31:28.589Z</time>
      </trkpt>
      <trkpt lat="44.12116" lon="2.28529">
        <ele>421.073087</ele>
        <time>2022-05-30T18:31:57.908Z</time>
      </trkpt>
      <trkpt lat="44.1222" lon="2.28518">
        <ele>402.760598</ele>
        <time>2022-05-30T18:32:18.525Z</time>
      </trkpt>
      <trkpt lat="44.12258" lon="2.28487">
        <ele>393.689459</ele>
        <time>2022-05-30T18:32:27.210Z</time>
      </trkpt>
      <trkpt lat="44.12312" lon="2.28476">
        <ele>382.372578</ele>
        <time>2022-05-30T18:32:37.962Z</time>
      </trkpt>
      <trkpt lat="44.12436" lon="2.28455">
        <ele>360.32454</ele>
        <time>2022-05-30T18:33:02.033Z</time>
      </trkpt>
      <trkpt lat="44.12472" lon="2.28455">
        <ele>354.780668</ele>
        <time>2022-05-30T18:33:09.138Z</time>
      </trkpt>
      <trkpt lat="44.12491" lon="2.28472">
        <ele>351.283011</ele>
        <time>2022-05-30T18:33:13.743Z</time>
      </trkpt>
      <trkpt lat="44.12434" lon="2.2852">
        <ele>343.91804</ele>
        <time>2022-05-30T18:33:28.451Z</time>
      </trkpt>
      <trkpt lat="44.12409" lon="2.28532">
        <ele>345.3875</ele>
        <time>2022-05-30T18:33:35.771Z</time>
      </trkpt>
      <trkpt lat="44.12322" lon="2.28579">
        <ele>350.511531</ele>
        <time>2022-05-30T18:34:34.268Z</time>
      </trkpt>
      <trkpt lat="44.12278" lon="2.2861">
        <ele>353.56464</ele>
        <time>2022-05-30T18:35:25.422Z</time>
      </trkpt>
      <trkpt lat="44.12186" lon="2.28653">
        <ele>368.686685</ele>
        <time>2022-05-30T18:37:18.433Z</time>
      </trkpt>
      <trkpt lat="44.12112" lon="2.2865">
        <ele>380.233173</ele>
        <time>2022-05-30T18:38:41.191Z</time>
      </trkpt>
      <trkpt lat="44.12071" lon="2.2867">
        <ele>385.930358</ele>
        <time>2022-05-30T18:39:26.976Z</time>
      </trkpt>
      <trkpt lat="44.12033" lon="2.28672">
        <ele>390.702328</ele>
        <time>2022-05-30T18:40:04.196Z</time>
      </trkpt>
      <trkpt lat="44.11985" lon="2.28663">
        <ele>396.693826</ele>
        <time>2022-05-30T18:40:48.654Z</time>
      </trkpt>
      <trkpt lat="44.11979" lon="2.28678">
        <ele>398.225484</ele>
        <time>2022-05-30T18:41:00.875Z</time>
      </trkpt>
      <trkpt lat="44.11999" lon="2.28689">
        <ele>400.858235</ele>
        <time>2022-05-30T18:41:17.621Z</time>
      </trkpt>
      <trkpt lat="44.12057" lon="2.2875">
        <ele>408.924818</ele>
        <time>2022-05-30T18:42:16.817Z</time>
      </trkpt>
      <trkpt lat="44.12001" lon="2.2872">
        <ele>415.188756</ele>
        <time>2022-05-30T18:43:08.284Z</time>
      </trkpt>
      <trkpt lat="44.11952" lon="2.28708">
        <ele>420.240659</ele>
        <time>2022-05-30T18:43:47.869Z</time>
      </trkpt>
      <trkpt lat="44.11862" lon="2.28659">
        <ele>430.012859</ele>
        <time>2022-05-30T18:45:11.934Z</time>
      </trkpt>
      <trkpt lat="44.11798" lon="2.28641">
        <ele>436.538739</ele>
        <time>2022-05-30T18:46:02.472Z</time>
      </trkpt>
      <trkpt lat="44.11777" lon="2.28648">
        <ele>438.634493</ele>
        <time>2022-05-30T18:46:19.746Z</time>
      </trkpt>
      <trkpt lat="44.11943" lon="2.28836">
        <ele>459.775331</ele>
        <time>2022-05-30T18:49:13.095Z</time>
      </trkpt>
      <trkpt lat="44.11951" lon="2.28875">
        <ele>462.624198</ele>
        <time>2022-05-30T18:49:38.665Z</time>
      </trkpt>
      <trkpt lat="44.11781" lon="2.28788">
        <ele>478.929176</ele>
        <time>2022-05-30T18:52:04.072Z</time>
      </trkpt>
      <trkpt lat="44.11739" lon="2.28785">
        <ele>481.837171</ele>
        <time>2022-05-30T18:52:32.242Z</time>
      </trkpt>
      <trkpt lat="44.1171" lon="2.28794">
        <ele>483.869297</ele>
        <time>2022-05-30T18:52:50.623Z</time>
      </trkpt>
      <trkpt lat="44.11684" lon="2.28818">
        <ele>485.970125</ele>
        <time>2022-05-30T18:53:08.059Z</time>
      </trkpt>
      <trkpt lat="44.11678" lon="2.28846">
        <ele>487.429588</ele>
        <time>2022-05-30T18:53:19.538Z</time>
      </trkpt>
      <trkpt lat="44.11681" lon="2.28851">
        <ele>487.715233</ele>
        <time>2022-05-30T18:53:21.767Z</time>
      </trkpt>
      <trkpt lat="44.11691" lon="2.28844">
        <ele>488.440443</ele>
        <time>2022-05-30T18:53:27.482Z</time>
      </trkpt>
      <trkpt lat="44.1171" lon="2.2885">
        <ele>489.788593</ele>
        <time>2022-05-30T18:53:38.009Z</time>
      </trkpt>
      <trkpt lat="44.1177" lon="2.28878">
        <ele>493.989987</ele>
        <time>2022-05-30T18:54:14.966Z</time>
      </trkpt>
      <trkpt lat="44.11809" lon="2.28957">
        <ele>498.596704</ele>
        <time>2022-05-30T18:55:04.292Z</time>
      </trkpt>
      <trkpt lat="44.11801" lon="2.29013">
        <ele>501.508535</ele>
        <time>2022-05-30T18:55:36.342Z</time>
      </trkpt>
      <trkpt lat="44.11727" lon="2.29137">
        <ele>510.123785</ele>
        <time>2022-05-30T18:57:02.118Z</time>
      </trkpt>
      <trkpt lat="44.11703" lon="2.29181">
        <ele>513.122805</ele>
        <time>2022-05-30T18:57:28.127Z</time>
      </trkpt>
      <trkpt lat="44.11655" lon="2.29305">
        <ele>514.206301</ele>
        <time>2022-05-30T18:58:14.067Z</time>
      </trkpt>
      <trkpt lat="44.11635" lon="2.29372">
        <ele>514.613762</ele>
        <time>2022-05-30T18:58:29.402Z</time>
      </trkpt>
      <trkpt lat="44.11626" lon="2.2945">
        <ele>513.559842</ele>
        <time>2022-05-30T18:58:37.210Z</time>
      </trkpt>
      <trkpt lat="44.11618" lon="2.295">
        <ele>511.721632</ele>
        <time>2022-05-30T18:58:42.186Z</time>
      </trkpt>
      <trkpt lat="44.11603" lon="2.29527">
        <ele>510.519133</ele>
        <time>2022-05-30T18:58:45.601Z</time>
      </trkpt>
      <trkpt lat="44.11567" lon="2.29563">
        <ele>508.321988</ele>
        <time>2022-05-30T18:58:51.428Z</time>
      </trkpt>
      <trkpt lat="44.11566" lon="2.29565">
        <ele>508.221405</ele>
        <time>2022-05-30T18:58:51.704Z</time>
      </trkpt>
      <trkpt lat="44.11566" lon="2.29565">
        <ele>508.221405</ele>
        <time>2022-05-30T18:58:51.748Z</time>
      </trkpt>
      <trkpt lat="44.11563" lon="2.2966">
        <ele>504.241478</ele>
        <time>2022-05-30T18:59:00.662Z</time>
      </trkpt>
      <trkpt lat="44.11547" lon="2.29738">
        <ele>499.761318</ele>
        <time>2022-05-30T18:59:07.985Z</time>
      </trkpt>
      <trkpt lat="44.11532" lon="2.29774">
        <ele>497.522432</ele>
        <time>2022-05-30T18:59:11.542Z</time>
      </trkpt>
      <trkpt lat="44.11497" lon="2.29823">
        <ele>493.715572</ele>
        <time>2022-05-30T18:59:17.743Z</time>
      </trkpt>
      <trkpt lat="44.11433" lon="2.30058">
        <ele>479.347256</ele>
        <time>2022-05-30T18:59:39.903Z</time>
      </trkpt>
      <trkpt lat="44.11415" lon="2.30108">
        <ele>476.973389</ele>
        <time>2022-05-30T18:59:44.945Z</time>
      </trkpt>
      <trkpt lat="44.11357" lon="2.30147">
        <ele>474.354034</ele>
        <time>2022-05-30T18:59:53.587Z</time>
      </trkpt>
      <trkpt lat="44.11324" lon="2.30091">
        <ele>472.267726</ele>
        <time>2022-05-30T19:00:01.045Z</time>
      </trkpt>
      <trkpt lat="44.11273" lon="2.30081">
        <ele>470.41645</ele>
        <time>2022-05-30T19:00:09.130Z</time>
      </trkpt>
      <trkpt lat="44.11238" lon="2.30068">
        <ele>469.943903</ele>
        <time>2022-05-30T19:00:15.282Z</time>
      </trkpt>
      <trkpt lat="44.11162" lon="2.29998">
        <ele>468.74868</ele>
        <time>2022-05-30T19:00:30.657Z</time>
      </trkpt>
      <trkpt lat="44.11144" lon="2.3">
        <ele>468.513745</ele>
        <time>2022-05-30T19:00:33.566Z</time>
      </trkpt>
      <trkpt lat="44.11083" lon="2.30045">
        <ele>467.572105</ele>
        <time>2022-05-30T19:00:44.613Z</time>
      </trkpt>
      <trkpt lat="44.11028" lon="2.30037">
        <ele>466.791687</ele>
        <time>2022-05-30T19:00:53.708Z</time>
      </trkpt>
      <trkpt lat="44.11055" lon="2.301">
        <ele>466.049923</ele>
        <time>2022-05-30T19:01:02.303Z</time>
      </trkpt>
      <trkpt lat="44.11028" lon="2.30037">
        <ele>465.336446</ele>
        <time>2022-05-30T19:01:10.847Z</time>
      </trkpt>
      <trkpt lat="44.11" lon="2.30035">
        <ele>464.98262</ele>
        <time>2022-05-30T19:01:15.309Z</time>
      </trkpt>
      <trkpt lat="44.10963" lon="2.30072">
        <ele>464.395822</ele>
        <time>2022-05-30T19:01:23.179Z</time>
      </trkpt>
      <trkpt lat="44.10929" lon="2.30097">
        <ele>463.904854</ele>
        <time>2022-05-30T19:01:29.871Z</time>
      </trkpt>
      <trkpt lat="44.10766" lon="2.30133">
        <ele>461.049049</ele>
        <time>2022-05-30T19:01:55.709Z</time>
      </trkpt>
      <trkpt lat="44.10682" lon="2.30141">
        <ele>459.522121</ele>
        <time>2022-05-30T19:02:08.571Z</time>
      </trkpt>
      <trkpt lat="44.10604" lon="2.30119">
        <ele>458.238478</ele>
        <time>2022-05-30T19:02:21.333Z</time>
      </trkpt>
      <trkpt lat="44.1055" lon="2.30122">
        <ele>457.364521</ele>
        <time>2022-05-30T19:02:30.263Z</time>
      </trkpt>
      <trkpt lat="44.10451" lon="2.30148">
        <ele>455.404325</ele>
        <time>2022-05-30T19:02:46.769Z</time>
      </trkpt>
      <trkpt lat="44.10496" lon="2.30411">
        <ele>450.057654</ele>
        <time>2022-05-30T19:03:15.591Z</time>
      </trkpt>
      <trkpt lat="44.10502" lon="2.30496">
        <ele>447.893579</ele>
        <time>2022-05-30T19:03:24.115Z</time>
      </trkpt>
      <trkpt lat="44.1047" lon="2.30693">
        <ele>440.155901</ele>
        <time>2022-05-30T19:03:43.203Z</time>
      </trkpt>
      <trkpt lat="44.10479" lon="2.30787">
        <ele>436.397165</ele>
        <time>2022-05-30T19:03:51.777Z</time>
      </trkpt>
      <trkpt lat="44.10473" lon="2.30842">
        <ele>434.723964</ele>
        <time>2022-05-30T19:03:56.913Z</time>
      </trkpt>
      <trkpt lat="44.10468" lon="2.30863">
        <ele>434.035606</ele>
        <time>2022-05-30T19:03:59.075Z</time>
      </trkpt>
      <trkpt lat="44.1045" lon="2.30896">
        <ele>432.815465</ele>
        <time>2022-05-30T19:04:02.969Z</time>
      </trkpt>
      <trkpt lat="44.10428" lon="2.30926">
        <ele>431.511672</ele>
        <time>2022-05-30T19:04:07.229Z</time>
      </trkpt>
      <trkpt lat="44.10404" lon="2.30959">
        <ele>430.099699</ele>
        <time>2022-05-30T19:04:12.556Z</time>
      </trkpt>
      <trkpt lat="44.10372" lon="2.31008">
        <ele>429.557978</ele>
        <time>2022-05-30T19:04:21.173Z</time>
      </trkpt>
      <trkpt lat="44.10324" lon="2.31093">
        <ele>430.520904</ele>
        <time>2022-05-30T19:04:38.626Z</time>
      </trkpt>
      <trkpt lat="44.10273" lon="2.31229">
        <ele>432.636701</ele>
        <time>2022-05-30T19:05:19.613Z</time>
      </trkpt>
      <trkpt lat="44.10193" lon="2.31512">
        <ele>437.580023</ele>
        <time>2022-05-30T19:06:41.315Z</time>
      </trkpt>
      <trkpt lat="44.10157" lon="2.31664">
        <ele>437.580023</ele>
        <time>2022-05-30T19:07:14.806Z</time>
      </trkpt>
      <trkpt lat="44.10154" lon="2.31666">
        <ele>437.580023</ele>
        <time>2022-05-30T19:07:15.563Z</time>
      </trkpt>
    </trkseg>
  </trk>
</gpx>